sensor_id;sensor_type;location;lat;lon;timestamp;pressure;altitude;pressure_sealevel;temperature;humidity
10060;BME280;5069;49.306;8.636;2023-01-26T00:00:41;101245.16;;;2.54;100.00
10060;BME280;5069;49.306;8.636;2023-01-26T00:03:42;101251.28;;;2.57;100.00
10060;BME280;5069;49.306;8.636;2023-01-26T00:06:44;101243.38;;;2.51;100.00
10060;BME280;5069;49.306;8.636;2023-01-26T00:09:46;101244.28;;;2.53;100.00
10060;BME280;5069;49.306;8.636;2023-01-26T00:12:47;101247.75;;;2.52;100.00
10060;BME280;5069;49.306;8.636;2023-01-26T00:15:48;101240.00;;;2.58;100.00
10060;BME280;5069;49.306;8.636;2023-01-26T00:18:50;101239.97;;;2.54;100.00
10060;BME280;5069;49.306;8.636;2023-01-26T00:21:51;101237.34;;;2.52;100.00
10060;BME280;5069;49.306;8.636;2023-01-26T00:24:53;101228.66;;;2.50;100.00
10060;BME280;5069;49.306;8.636;2023-01-26T00:27:55;101227.78;;;2.51;100.00
10060;BME280;5069;49.306;8.636;2023-01-26T00:31:04;101232.97;;;2.49;100.00
10060;BME280;5069;49.306;8.636;2023-01-26T00:34:06;101228.66;;;2.52;100.00
10060;BME280;5069;49.306;8.636;2023-01-26T00:37:07;101220.84;;;2.50;100.00
10060;BME280;5069;49.306;8.636;2023-01-26T00:40:09;101220.66;;;2.36;100.00
10060;BME280;5069;49.306;8.636;2023-01-26T00:43:11;101213.47;;;2.19;100.00
10060;BME280;5069;49.306;8.636;2023-01-26T00:46:13;101215.94;;;2.08;100.00
10060;BME280;5069;49.306;8.636;2023-01-26T00:49:15;101217.56;;;1.98;100.00
10060;BME280;5069;49.306;8.636;2023-01-26T00:52:16;101214.03;;;1.96;100.00
10060;BME280;5069;49.306;8.636;2023-01-26T00:55:18;101208.00;;;1.97;100.00
10060;BME280;5069;49.306;8.636;2023-01-26T00:58:19;101205.25;;;1.87;100.00
10060;BME280;5069;49.306;8.636;2023-01-26T01:01:23;101203.44;;;1.81;100.00
10060;BME280;5069;49.306;8.636;2023-01-26T01:04:24;101196.47;;;1.80;100.00
10060;BME280;5069;49.306;8.636;2023-01-26T01:07:26;101195.63;;;1.81;100.00
10060;BME280;5069;49.306;8.636;2023-01-26T01:10:27;101202.66;;;1.87;100.00
10060;BME280;5069;49.306;8.636;2023-01-26T01:13:29;101194.25;;;2.07;100.00
10060;BME280;5069;49.306;8.636;2023-01-26T01:16:30;101190.66;;;1.99;100.00
10060;BME280;5069;49.306;8.636;2023-01-26T01:19:32;101197.53;;;1.94;100.00
10060;BME280;5069;49.306;8.636;2023-01-26T01:22:34;101191.56;;;2.01;100.00
10060;BME280;5069;49.306;8.636;2023-01-26T01:25:36;101184.41;;;1.85;100.00
10060;BME280;5069;49.306;8.636;2023-01-26T01:28:38;101188.63;;;1.77;100.00
10060;BME280;5069;49.306;8.636;2023-01-26T01:31:40;101191.00;;;1.62;100.00
10060;BME280;5069;49.306;8.636;2023-01-26T01:34:45;101189.03;;;1.46;100.00
10060;BME280;5069;49.306;8.636;2023-01-26T01:37:47;101192.59;;;1.52;100.00
10060;BME280;5069;49.306;8.636;2023-01-26T01:40:48;101192.69;;;1.60;100.00
10060;BME280;5069;49.306;8.636;2023-01-26T01:43:50;101187.50;;;1.60;100.00
10060;BME280;5069;49.306;8.636;2023-01-26T01:46:55;101196.19;;;1.62;100.00
10060;BME280;5069;49.306;8.636;2023-01-26T01:49:58;101191.00;;;1.62;100.00
10060;BME280;5069;49.306;8.636;2023-01-26T01:53:00;101189.22;;;1.58;100.00
10060;BME280;5069;49.306;8.636;2023-01-26T01:56:05;101189.25;;;1.59;100.00
10060;BME280;5069;49.306;8.636;2023-01-26T01:59:09;101190.97;;;1.59;100.00
10060;BME280;5069;49.306;8.636;2023-01-26T02:02:12;101194.50;;;1.64;100.00
10060;BME280;5069;49.306;8.636;2023-01-26T02:05:26;101183.25;;;1.66;100.00
10060;BME280;5069;49.306;8.636;2023-01-26T02:08:36;101177.88;;;1.54;100.00
10060;BME280;5069;49.306;8.636;2023-01-26T02:11:40;101178.75;;;1.53;100.00
10060;BME280;5069;49.306;8.636;2023-01-26T02:14:45;101173.53;;;1.52;100.00
10060;BME280;5069;49.306;8.636;2023-01-26T02:17:51;101176.25;;;1.61;100.00
10060;BME280;5069;49.306;8.636;2023-01-26T02:20:56;101175.28;;;1.53;100.00
10060;BME280;5069;49.306;8.636;2023-01-26T02:24:16;101175.22;;;1.50;100.00
10060;BME280;5069;49.306;8.636;2023-01-26T02:27:20;101171.81;;;1.54;100.00
10060;BME280;5069;49.306;8.636;2023-01-26T02:30:24;101174.41;;;1.54;100.00
10060;BME280;5069;49.306;8.636;2023-01-26T02:33:29;101177.94;;;1.57;100.00
10060;BME280;5069;49.306;8.636;2023-01-26T02:36:34;101171.91;;;1.60;100.00
10060;BME280;5069;49.306;8.636;2023-01-26T02:39:51;101168.28;;;1.50;100.00
10060;BME280;5069;49.306;8.636;2023-01-26T02:42:53;101153.78;;;1.63;100.00
10060;BME280;5069;49.306;8.636;2023-01-26T02:45:55;101161.56;;;1.63;100.00
10060;BME280;5069;49.306;8.636;2023-01-26T02:48:57;101161.38;;;1.51;100.00
10060;BME280;5069;49.306;8.636;2023-01-26T02:52:20;101165.59;;;1.44;100.00
10060;BME280;5069;49.306;8.636;2023-01-26T02:55:28;101152.44;;;1.34;100.00
10060;BME280;5069;49.306;8.636;2023-01-26T02:58:31;101152.56;;;1.43;100.00
10060;BME280;5069;49.306;8.636;2023-01-26T03:01:32;101158.72;;;1.46;100.00
10060;BME280;5069;49.306;8.636;2023-01-26T03:04:33;101151.69;;;1.41;100.00
10060;BME280;5069;49.306;8.636;2023-01-26T03:07:35;101149.00;;;1.35;100.00
10060;BME280;5069;49.306;8.636;2023-01-26T03:10:37;101138.72;;;1.41;100.00
10060;BME280;5069;49.306;8.636;2023-01-26T03:13:39;101142.06;;;1.34;100.00
10060;BME280;5069;49.306;8.636;2023-01-26T03:16:41;101147.22;;;1.31;100.00
10060;BME280;5069;49.306;8.636;2023-01-26T03:19:43;101133.25;;;1.25;100.00
10060;BME280;5069;49.306;8.636;2023-01-26T03:23:07;101133.31;;;1.29;100.00
10060;BME280;5069;49.306;8.636;2023-01-26T03:26:27;101122.75;;;1.16;100.00
10060;BME280;5069;49.306;8.636;2023-01-26T03:29:47;101126.19;;;1.15;100.00
10060;BME280;5069;49.306;8.636;2023-01-26T03:32:48;101135.78;;;1.21;100.00
10060;BME280;5069;49.306;8.636;2023-01-26T03:35:52;101130.53;;;1.16;100.00
10060;BME280;5069;49.306;8.636;2023-01-26T03:38:55;101127.03;;;1.13;100.00
10060;BME280;5069;49.306;8.636;2023-01-26T03:41:57;101121.69;;;1.05;100.00
10060;BME280;5069;49.306;8.636;2023-01-26T03:45:17;101118.22;;;1.05;100.00
10060;BME280;5069;49.306;8.636;2023-01-26T03:48:37;101121.66;;;1.04;100.00
10060;BME280;5069;49.306;8.636;2023-01-26T03:51:58;101112.13;;;1.03;100.00
10060;BME280;5069;49.306;8.636;2023-01-26T03:55:18;101112.22;;;1.07;100.00
10060;BME280;5069;49.306;8.636;2023-01-26T03:58:38;101113.06;;;1.06;100.00
10060;BME280;5069;49.306;8.636;2023-01-26T04:01:42;101119.16;;;1.10;100.00
10060;BME280;5069;49.306;8.636;2023-01-26T04:05:03;101117.34;;;1.04;100.00
10060;BME280;5069;49.306;8.636;2023-01-26T04:08:28;101112.16;;;1.04;100.00
10060;BME280;5069;49.306;8.636;2023-01-26T04:11:33;101103.50;;;1.05;100.00
10060;BME280;5069;49.306;8.636;2023-01-26T04:14:34;101103.47;;;1.02;100.00
10060;BME280;5069;49.306;8.636;2023-01-26T04:17:58;101107.84;;;1.05;100.00
10060;BME280;5069;49.306;8.636;2023-01-26T04:21:18;101110.50;;;1.09;100.00
10060;BME280;5069;49.306;8.636;2023-01-26T04:24:43;101109.63;;;1.09;100.00
10060;BME280;5069;49.306;8.636;2023-01-26T04:27:45;101102.56;;;1.00;100.00
10060;BME280;5069;49.306;8.636;2023-01-26T04:30:47;101100.88;;;1.02;100.00
10060;BME280;5069;49.306;8.636;2023-01-26T04:33:50;101093.88;;;0.97;100.00
10060;BME280;5069;49.306;8.636;2023-01-26T04:36:51;101094.53;;;0.85;100.00
10060;BME280;5069;49.306;8.636;2023-01-26T04:39:56;101091.94;;;0.87;100.00
10060;BME280;5069;49.306;8.636;2023-01-26T04:42:58;101082.63;;;0.98;100.00
10060;BME280;5069;49.306;8.636;2023-01-26T04:46:01;101084.50;;;1.06;100.00
10060;BME280;5069;49.306;8.636;2023-01-26T04:49:04;101088.25;;;1.25;100.00
10060;BME280;5069;49.306;8.636;2023-01-26T04:52:07;101078.66;;;1.19;100.00
10060;BME280;5069;49.306;8.636;2023-01-26T04:55:09;101087.94;;;1.05;100.00
10060;BME280;5069;49.306;8.636;2023-01-26T04:58:13;101080.06;;;0.99;100.00
10060;BME280;5069;49.306;8.636;2023-01-26T05:01:16;101081.78;;;0.99;100.00
10060;BME280;5069;49.306;8.636;2023-01-26T05:04:17;101081.94;;;1.08;100.00
10060;BME280;5069;49.306;8.636;2023-01-26T05:07:20;101078.56;;;1.13;100.00
10060;BME280;5069;49.306;8.636;2023-01-26T05:10:22;101070.09;;;1.25;100.00
10060;BME280;5069;49.306;8.636;2023-01-26T05:13:31;101070.06;;;1.23;100.00
10060;BME280;5069;49.306;8.636;2023-01-26T05:16:47;101081.16;;;1.15;100.00
10060;BME280;5069;49.306;8.636;2023-01-26T05:19:59;101077.50;;;1.01;100.00
10060;BME280;5069;49.306;8.636;2023-01-26T05:23:14;101082.69;;;1.01;100.00
10060;BME280;5069;49.306;8.636;2023-01-26T05:26:34;101076.69;;;1.05;100.00
10060;BME280;5069;49.306;8.636;2023-01-26T05:29:38;101067.06;;;0.99;100.00
10060;BME280;5069;49.306;8.636;2023-01-26T05:32:40;101073.97;;;0.99;100.00
10060;BME280;5069;49.306;8.636;2023-01-26T05:35:42;101067.19;;;1.08;100.00
10060;BME280;5069;49.306;8.636;2023-01-26T05:38:44;101069.16;;;1.21;100.00
10060;BME280;5069;49.306;8.636;2023-01-26T05:41:45;101075.00;;;1.08;100.00
10060;BME280;5069;49.306;8.636;2023-01-26T05:45:16;101078.81;;;1.30;100.00
10060;BME280;5069;49.306;8.636;2023-01-26T05:48:18;101078.66;;;1.21;100.00
10060;BME280;5069;49.306;8.636;2023-01-26T05:51:24;101076.06;;;1.19;100.00
10060;BME280;5069;49.306;8.636;2023-01-26T05:54:25;101082.00;;;1.12;100.00
10060;BME280;5069;49.306;8.636;2023-01-26T05:57:28;101080.13;;;1.04;100.00
10060;BME280;5069;49.306;8.636;2023-01-26T06:00:37;101087.97;;;1.08;100.00
10060;BME280;5069;49.306;8.636;2023-01-26T06:03:44;101088.94;;;1.13;100.00
10060;BME280;5069;49.306;8.636;2023-01-26T06:06:45;101091.56;;;1.16;100.00
10060;BME280;5069;49.306;8.636;2023-01-26T06:09:54;101087.19;;;1.12;100.00
10060;BME280;5069;49.306;8.636;2023-01-26T06:13:14;101089.72;;;1.08;100.00
10060;BME280;5069;49.306;8.636;2023-01-26T06:16:23;101085.31;;;1.04;100.00
10060;BME280;5069;49.306;8.636;2023-01-26T06:19:25;101088.47;;;0.86;100.00
10060;BME280;5069;49.306;8.636;2023-01-26T06:22:31;101093.91;;;1.00;100.00
10060;BME280;5069;49.306;8.636;2023-01-26T06:25:33;101092.19;;;1.00;100.00
10060;BME280;5069;49.306;8.636;2023-01-26T06:28:35;101092.94;;;0.93;100.00
10060;BME280;5069;49.306;8.636;2023-01-26T06:31:36;101100.75;;;0.95;100.00
10060;BME280;5069;49.306;8.636;2023-01-26T06:34:40;101097.13;;;0.87;100.00
10060;BME280;5069;49.306;8.636;2023-01-26T06:37:42;101100.53;;;0.82;100.00
10060;BME280;5069;49.306;8.636;2023-01-26T06:40:43;101100.53;;;0.82;100.00
10060;BME280;5069;49.306;8.636;2023-01-26T06:43:46;101098.75;;;0.80;100.00
10060;BME280;5069;49.306;8.636;2023-01-26T06:46:48;101104.72;;;0.74;100.00
10060;BME280;5069;49.306;8.636;2023-01-26T06:49:50;101108.28;;;0.79;100.00
10060;BME280;5069;49.306;8.636;2023-01-26T06:52:55;101104.84;;;0.82;100.00
10060;BME280;5069;49.306;8.636;2023-01-26T06:56:27;101102.22;;;0.79;100.00
10060;BME280;5069;49.306;8.636;2023-01-26T07:00:08;101108.19;;;0.75;100.00
10060;BME280;5069;49.306;8.636;2023-01-26T07:03:28;101108.94;;;0.68;100.00
10060;BME280;5069;49.306;8.636;2023-01-26T07:06:29;101113.16;;;0.63;100.00
10060;BME280;5069;49.306;8.636;2023-01-26T07:09:31;101110.66;;;0.67;100.00
10060;BME280;5069;49.306;8.636;2023-01-26T07:12:39;101107.31;;;0.73;100.00
10060;BME280;5069;49.306;8.636;2023-01-26T07:15:40;101110.78;;;0.73;100.00
10060;BME280;5069;49.306;8.636;2023-01-26T07:18:42;101102.97;;;0.72;100.00
10060;BME280;5069;49.306;8.636;2023-01-26T07:21:43;101108.16;;;0.72;100.00
10060;BME280;5069;49.306;8.636;2023-01-26T07:24:45;101111.59;;;0.71;100.00
10060;BME280;5069;49.306;8.636;2023-01-26T07:27:46;101103.09;;;0.81;100.00
10060;BME280;5069;49.306;8.636;2023-01-26T07:30:48;101105.66;;;0.78;100.00
10060;BME280;5069;49.306;8.636;2023-01-26T07:33:49;101102.34;;;0.85;100.00
10060;BME280;5069;49.306;8.636;2023-01-26T07:36:51;101101.44;;;0.86;100.00
10060;BME280;5069;49.306;8.636;2023-01-26T07:39:53;101114.31;;;0.80;100.00
10060;BME280;5069;49.306;8.636;2023-01-26T07:42:55;101108.28;;;0.81;100.00
10060;BME280;5069;49.306;8.636;2023-01-26T07:46:15;101113.56;;;0.84;100.00
10060;BME280;5069;49.306;8.636;2023-01-26T07:49:16;101109.94;;;0.76;100.00
10060;BME280;5069;49.306;8.636;2023-01-26T07:52:18;101116.91;;;0.80;100.00
10060;BME280;5069;49.306;8.636;2023-01-26T07:55:19;101118.88;;;0.93;100.00
10060;BME280;5069;49.306;8.636;2023-01-26T07:58:21;101122.50;;;1.01;100.00
10060;BME280;5069;49.306;8.636;2023-01-26T08:01:23;101117.34;;;1.04;100.00
10060;BME280;5069;49.306;8.636;2023-01-26T08:04:24;101119.22;;;1.14;100.00
10060;BME280;5069;49.306;8.636;2023-01-26T08:07:26;101122.75;;;1.16;100.00
10060;BME280;5069;49.306;8.636;2023-01-26T08:10:27;101121.16;;;1.24;100.00
10060;BME280;5069;49.306;8.636;2023-01-26T08:13:31;101114.34;;;1.33;100.00
10060;BME280;5069;49.306;8.636;2023-01-26T08:16:36;101124.88;;;1.42;100.00
10060;BME280;5069;49.306;8.636;2023-01-26T08:19:38;101127.22;;;1.25;100.00
10060;BME280;5069;49.306;8.636;2023-01-26T08:22:39;101131.63;;;1.31;100.00
10060;BME280;5069;49.306;8.636;2023-01-26T08:25:40;101116.16;;;1.37;100.00
10060;BME280;5069;49.306;8.636;2023-01-26T08:28:42;101120.47;;;1.38;100.00
10060;BME280;5069;49.306;8.636;2023-01-26T08:31:44;101113.75;;;1.50;100.00
10060;BME280;5069;49.306;8.636;2023-01-26T08:34:45;101118.28;;;1.63;100.00
10060;BME280;5069;49.306;8.636;2023-01-26T08:37:47;101118.97;;;1.52;100.00
10060;BME280;5069;49.306;8.636;2023-01-26T08:40:51;101121.69;;;1.61;100.00
10060;BME280;5069;49.306;8.636;2023-01-26T08:43:53;101122.47;;;1.55;100.00
10060;BME280;5069;49.306;8.636;2023-01-26T08:46:55;101123.22;;;1.47;100.00
10060;BME280;5069;49.306;8.636;2023-01-26T08:49:56;101129.78;;;1.23;100.00
10060;BME280;5069;49.306;8.636;2023-01-26T08:52:58;101133.19;;;1.19;100.00
10060;BME280;5069;49.306;8.636;2023-01-26T08:56:07;101136.47;;;1.09;100.00
10060;BME280;5069;49.306;8.636;2023-01-26T08:59:09;101129.50;;;1.08;100.00
10060;BME280;5069;49.306;8.636;2023-01-26T09:02:11;101125.31;;;1.13;100.00
10060;BME280;5069;49.306;8.636;2023-01-26T09:05:13;101128.00;;;1.19;100.00
10060;BME280;5069;49.306;8.636;2023-01-26T09:08:14;101127.28;;;1.31;100.00
10060;BME280;5069;49.306;8.636;2023-01-26T09:11:15;101124.59;;;1.23;100.00
10060;BME280;5069;49.306;8.636;2023-01-26T09:14:17;101129.78;;;1.23;100.00
10060;BME280;5069;49.306;8.636;2023-01-26T09:17:18;101131.59;;;1.29;100.00
10060;BME280;5069;49.306;8.636;2023-01-26T09:20:21;101133.91;;;1.11;100.00
10060;BME280;5069;49.306;8.636;2023-01-26T09:23:22;101128.84;;;1.20;100.00
10060;BME280;5069;49.306;8.636;2023-01-26T09:26:24;101134.88;;;1.17;100.00
10060;BME280;5069;49.306;8.636;2023-01-26T09:29:25;101133.03;;;1.10;100.00
10060;BME280;5069;49.306;8.636;2023-01-26T09:32:27;101125.09;;;1.03;100.00
10060;BME280;5069;49.306;8.636;2023-01-26T09:35:29;101131.16;;;1.03;100.00
10060;BME280;5069;49.306;8.636;2023-01-26T09:38:31;101132.03;;;1.04;100.00
10060;BME280;5069;49.306;8.636;2023-01-26T09:45:14;101139.66;;;0.93;100.00
10060;BME280;5069;49.306;8.636;2023-01-26T09:52:31;101129.94;;;0.81;100.00
10060;BME280;5069;49.306;8.636;2023-01-26T09:55:33;101137.69;;;0.80;100.00
10060;BME280;5069;49.306;8.636;2023-01-26T09:58:39;101134.25;;;0.81;100.00
10060;BME280;5069;49.306;8.636;2023-01-26T10:01:45;101131.00;;;0.91;100.00
10060;BME280;5069;49.306;8.636;2023-01-26T10:04:55;101136.00;;;0.82;100.00
10060;BME280;5069;49.306;8.636;2023-01-26T10:07:59;101134.31;;;0.84;100.00
10060;BME280;5069;49.306;8.636;2023-01-26T10:11:15;101128.22;;;0.82;100.00
10060;BME280;5069;49.306;8.636;2023-01-26T10:14:38;101134.34;;;0.87;100.00
10060;BME280;5069;49.306;8.636;2023-01-26T10:17:44;101131.56;;;0.76;100.00
10060;BME280;5069;49.306;8.636;2023-01-26T10:20:53;101122.91;;;0.76;100.00
10060;BME280;5069;49.306;8.636;2023-01-26T10:23:58;101120.16;;;0.67;100.00
10060;BME280;5069;49.306;8.636;2023-01-26T10:27:00;101120.28;;;0.73;100.00
10060;BME280;5069;49.306;8.636;2023-01-26T10:30:02;101110.78;;;0.75;100.00
10060;BME280;5069;49.306;8.636;2023-01-26T10:33:11;101121.84;;;0.65;100.00
10060;BME280;5069;49.306;8.636;2023-01-26T10:36:16;101119.97;;;0.56;100.00
10060;BME280;5069;49.306;8.636;2023-01-26T10:39:18;101115.09;;;0.73;100.00
10060;BME280;5069;49.306;8.636;2023-01-26T10:42:28;101112.47;;;0.71;100.00
10060;BME280;5069;49.306;8.636;2023-01-26T10:45:32;101106.47;;;0.74;100.00
10060;BME280;5069;49.306;8.636;2023-01-26T10:48:33;101109.91;;;0.73;100.00
10060;BME280;5069;49.306;8.636;2023-01-26T10:51:41;101107.94;;;0.60;100.00
10060;BME280;5069;49.306;8.636;2023-01-26T10:54:45;101111.72;;;0.80;100.00
10060;BME280;5069;49.306;8.636;2023-01-26T10:57:46;101107.34;;;0.76;100.00
10060;BME280;5069;49.306;8.636;2023-01-26T11:00:54;101109.13;;;0.78;100.00
10060;BME280;5069;49.306;8.636;2023-01-26T11:04:10;101097.84;;;0.76;100.00
10060;BME280;5069;49.306;8.636;2023-01-26T11:07:25;101098.13;;;0.93;100.00
10060;BME280;5069;49.306;8.636;2023-01-26T11:10:37;101092.91;;;0.90;100.00
10060;BME280;5069;49.306;8.636;2023-01-26T11:13:39;101095.53;;;0.93;100.00
10060;BME280;5069;49.306;8.636;2023-01-26T11:16:44;101095.69;;;1.04;100.00
10060;BME280;5069;49.306;8.636;2023-01-26T11:26:34;101092.06;;;0.91;100.00
10060;BME280;5069;49.306;8.636;2023-01-26T11:29:48;101086.94;;;0.97;100.00
10060;BME280;5069;49.306;8.636;2023-01-26T11:33:16;101090.41;;;0.98;100.00
10060;BME280;5069;49.306;8.636;2023-01-26T11:36:44;101081.91;;;1.06;100.00
10060;BME280;5069;49.306;8.636;2023-01-26T11:49:50;101075.06;;;1.11;100.00
10060;BME280;5069;49.306;8.636;2023-01-26T11:53:09;101067.97;;;1.01;100.00
10060;BME280;5069;49.306;8.636;2023-01-26T11:56:39;101068.75;;;0.96;100.00
10060;BME280;5069;49.306;8.636;2023-01-26T12:02:55;101046.50;;;1.11;100.00
10060;BME280;5069;49.306;8.636;2023-01-26T12:06:04;101047.19;;;1.00;100.00
10060;BME280;5069;49.306;8.636;2023-01-26T12:09:14;101052.41;;;1.03;100.00
10060;BME280;5069;49.306;8.636;2023-01-26T12:12:36;101043.09;;;1.14;100.00
10060;BME280;5069;49.306;8.636;2023-01-26T12:15:46;101043.06;;;1.12;100.00
10060;BME280;5069;49.306;8.636;2023-01-26T12:19:01;101044.78;;;1.12;100.00
10060;BME280;5069;49.306;8.636;2023-01-26T12:22:17;101038.69;;;1.11;100.00
10060;BME280;5069;49.306;8.636;2023-01-26T12:25:36;101031.91;;;1.19;100.00
10060;BME280;5069;49.306;8.636;2023-01-26T12:32:13;101018.13;;;1.23;100.00
10060;BME280;5069;49.306;8.636;2023-01-26T12:35:26;101013.00;;;1.31;100.00
10060;BME280;5069;49.306;8.636;2023-01-26T12:45:33;101014.59;;;1.20;100.00
10060;BME280;5069;49.306;8.636;2023-01-26T12:48:41;101007.56;;;1.14;100.00
10060;BME280;5069;49.306;8.636;2023-01-26T12:51:50;101008.53;;;1.21;100.00
10060;BME280;5069;49.306;8.636;2023-01-26T12:55:04;101001.50;;;1.12;100.00
10060;BME280;5069;49.306;8.636;2023-01-26T12:58:20;101003.22;;;1.12;100.00
10060;BME280;5069;49.306;8.636;2023-01-26T13:01:24;100991.84;;;1.02;100.00
10060;BME280;5069;49.306;8.636;2023-01-26T13:04:27;100998.78;;;1.05;100.00
10060;BME280;5069;49.306;8.636;2023-01-26T13:07:37;101003.97;;;1.02;100.00
10060;BME280;5069;49.306;8.636;2023-01-26T13:10:45;100993.69;;;1.11;100.00
10060;BME280;5069;49.306;8.636;2023-01-26T13:13:52;101005.84;;;1.13;100.00
10060;BME280;5069;49.306;8.636;2023-01-26T13:16:54;100989.28;;;1.05;100.00
10060;BME280;5069;49.306;8.636;2023-01-26T13:19:55;100998.84;;;1.08;100.00
10060;BME280;5069;49.306;8.636;2023-01-26T13:23:00;101001.25;;;0.97;100.00
10060;BME280;5069;49.306;8.636;2023-01-26T13:26:16;100998.78;;;1.05;100.00
10060;BME280;5069;49.306;8.636;2023-01-26T13:35:28;100994.97;;;0.81;100.00
10060;BME280;5069;49.306;8.636;2023-01-26T13:38:47;100993.31;;;0.87;100.00
10060;BME280;5069;49.306;8.636;2023-01-26T13:41:53;101000.34;;;0.94;100.00
10060;BME280;5069;49.306;8.636;2023-01-26T13:45:12;100995.06;;;0.88;100.00
10060;BME280;5069;49.306;8.636;2023-01-26T13:48:29;100996.03;;;0.94;100.00
10060;BME280;5069;49.306;8.636;2023-01-26T13:51:35;101003.69;;;0.87;100.00
10060;BME280;5069;49.306;8.636;2023-01-26T13:54:40;101005.31;;;0.80;100.00
10060;BME280;5069;49.306;8.636;2023-01-26T13:57:42;101003.69;;;0.87;100.00
10060;BME280;5069;49.306;8.636;2023-01-26T14:01:00;101011.59;;;0.91;100.00
10060;BME280;5069;49.306;8.636;2023-01-26T14:04:04;101013.47;;;1.03;100.00
10060;BME280;5069;49.306;8.636;2023-01-26T14:07:08;101010.06;;;1.05;100.00
10060;BME280;5069;49.306;8.636;2023-01-26T14:10:17;101010.81;;;0.98;100.00
10060;BME280;5069;49.306;8.636;2023-01-26T14:13:29;101013.28;;;0.89;100.00
10060;BME280;5069;49.306;8.636;2023-01-26T14:16:36;101009.78;;;0.87;100.00
10060;BME280;5069;49.306;8.636;2023-01-26T14:19:39;101010.63;;;0.85;100.00
10060;BME280;5069;49.306;8.636;2023-01-26T14:22:42;101017.53;;;0.84;100.00
10060;BME280;5069;49.306;8.636;2023-01-26T14:25:55;101018.31;;;0.80;100.00
10060;BME280;5069;49.306;8.636;2023-01-26T14:28:59;101008.75;;;0.77;100.00
10060;BME280;5069;49.306;8.636;2023-01-26T14:32:00;101011.44;;;0.82;100.00
10060;BME280;5069;49.306;8.636;2023-01-26T14:35:02;101013.13;;;0.80;100.00
10060;BME280;5069;49.306;8.636;2023-01-26T14:44:23;101021.16;;;0.95;100.00
10060;BME280;5069;49.306;8.636;2023-01-26T14:47:28;101025.44;;;0.93;100.00
10060;BME280;5069;49.306;8.636;2023-01-26T14:50:33;101023.69;;;0.92;100.00
10060;BME280;5069;49.306;8.636;2023-01-26T14:53:36;101029.75;;;0.93;100.00
10060;BME280;5069;49.306;8.636;2023-01-26T14:56:38;101033.09;;;0.84;100.00
10060;BME280;5069;49.306;8.636;2023-01-26T14:59:40;101040.03;;;0.85;100.00
10060;BME280;5069;49.306;8.636;2023-01-26T15:02:43;101038.28;;;0.84;100.00
10060;BME280;5069;49.306;8.636;2023-01-26T15:05:47;101044.09;;;0.68;100.00
10060;BME280;5069;49.306;8.636;2023-01-26T15:09:03;101050.97;;;0.66;100.00
10060;BME280;5069;49.306;8.636;2023-01-26T15:12:12;101049.28;;;0.68;100.00
10060;BME280;5069;49.306;8.636;2023-01-26T15:15:17;101044.09;;;0.68;100.00
10060;BME280;5069;49.306;8.636;2023-01-26T15:18:20;101043.13;;;0.64;100.00
10060;BME280;5069;49.306;8.636;2023-01-26T15:21:30;101044.09;;;0.68;100.00
10060;BME280;5069;49.306;8.636;2023-01-26T15:24:33;101044.13;;;0.71;100.00
10060;BME280;5069;49.306;8.636;2023-01-26T15:27:35;101051.03;;;0.70;100.00
10060;BME280;5069;49.306;8.636;2023-01-26T15:30:37;101051.09;;;0.75;100.00
10060;BME280;5069;49.306;8.636;2023-01-26T15:33:44;101050.16;;;0.68;100.00
10060;BME280;5069;49.306;8.636;2023-01-26T15:36:48;101047.41;;;0.61;100.00
10060;BME280;5069;49.306;8.636;2023-01-26T15:39:50;101048.47;;;0.72;99.70
10060;BME280;5069;49.306;8.636;2023-01-26T15:43:16;101045.88;;;0.72;99.88
10060;BME280;5069;49.306;8.636;2023-01-26T15:46:18;101044.63;;;0.52;100.00
10060;BME280;5069;49.306;8.636;2023-01-26T15:49:19;101044.84;;;0.62;100.00
10060;BME280;5069;49.306;8.636;2023-01-26T15:52:25;101043.34;;;0.76;100.00
10060;BME280;5069;49.306;8.636;2023-01-26T15:55:31;101038.00;;;0.69;99.99
10060;BME280;5069;49.306;8.636;2023-01-26T15:58:33;101044.31;;;0.83;100.00
10060;BME280;5069;49.306;8.636;2023-01-26T16:01:36;101042.53;;;0.79;100.00
10060;BME280;5069;49.306;8.636;2023-01-26T16:04:38;101043.34;;;0.76;100.00
10060;BME280;5069;49.306;8.636;2023-01-26T16:07:39;101042.53;;;0.79;100.00
10060;BME280;5069;49.306;8.636;2023-01-26T16:10:41;101052.75;;;0.70;100.00
10060;BME280;5069;49.306;8.636;2023-01-26T16:13:43;101050.81;;;0.57;100.00
10060;BME280;5069;49.306;8.636;2023-01-26T16:17:10;101042.97;;;0.54;100.00
10060;BME280;5069;49.306;8.636;2023-01-26T16:20:12;101043.75;;;0.50;100.00
10060;BME280;5069;49.306;8.636;2023-01-26T16:23:20;101041.38;;;0.63;100.00
10060;BME280;5069;49.306;8.636;2023-01-26T16:26:21;101040.56;;;0.66;100.00
10060;BME280;5069;49.306;8.636;2023-01-26T16:29:23;101042.44;;;0.73;100.00
10060;BME280;5069;49.306;8.636;2023-01-26T16:32:29;101037.34;;;0.80;99.62
10060;BME280;5069;49.306;8.636;2023-01-26T16:35:31;101047.75;;;0.82;98.06
10060;BME280;5069;49.306;8.636;2023-01-26T16:38:32;101044.09;;;0.68;98.33
10060;BME280;5069;49.306;8.636;2023-01-26T16:41:34;101036.94;;;0.55;98.02
10060;BME280;5069;49.306;8.636;2023-01-26T16:44:35;101042.16;;;0.58;98.75
10060;BME280;5069;49.306;8.636;2023-01-26T16:47:37;101031.84;;;0.61;98.61
10060;BME280;5069;49.306;8.636;2023-01-26T16:50:39;101043.75;;;0.50;98.06
10060;BME280;5069;49.306;8.636;2023-01-26T16:53:41;101038.63;;;0.53;98.81
10060;BME280;5069;49.306;8.636;2023-01-26T16:56:42;101039.69;;;0.65;97.78
10060;BME280;5069;49.306;8.636;2023-01-26T16:59:44;101050.31;;;0.79;95.68
10060;BME280;5069;49.306;8.636;2023-01-26T17:02:47;101052.63;;;0.64;96.99
10060;BME280;5069;49.306;8.636;2023-01-26T17:05:49;101055.31;;;0.67;96.05
10060;BME280;5069;49.306;8.636;2023-01-26T17:08:51;101054.47;;;0.68;96.64
10060;BME280;5069;49.306;8.636;2023-01-26T17:11:52;101061.47;;;0.75;96.00
10060;BME280;5069;49.306;8.636;2023-01-26T17:14:54;101056.28;;;0.75;96.38